sensor_id;sensor_type;location;lat;lon;timestamp;pressure;altitude;pressure_sealevel;temperature;humidity
48035;BME280;33812;46.480;6.834;2023-04-29T00:00:59;93571.34;;;21.67;46.27
48035;BME280;33812;46.480;6.834;2023-04-29T00:05:02;93582.63;;;21.72;46.12
48035;BME280;33812;46.480;6.834;2023-04-29T00:09:04;93574.75;;;21.84;45.89
48035;BME280;33812;46.480;6.834;2023-04-29T00:13:07;93578.03;;;21.79;46.22
48035;BME280;33812;46.480;6.834;2023-04-29T00:17:09;93563.59;;;21.74;46.03
48035;BME280;33812;46.480;6.834;2023-04-29T00:21:14;93566.81;;;21.73;46.17
48035;BME280;33812;46.480;6.834;2023-04-29T00:25:17;93563.69;;;21.84;45.94
48035;BME280;33812;46.480;6.834;2023-04-29T00:29:22;93564.06;;;21.60;46.80
48035;BME280;33812;46.480;6.834;2023-04-29T00:33:30;93549.66;;;21.65;46.53
48035;BME280;33812;46.480;6.834;2023-04-29T00:37:41;93544.84;;;21.43;47.43
48035;BME280;33812;46.480;6.834;2023-04-29T00:41:45;93538.00;;;21.35;47.73
48035;BME280;33812;46.480;6.834;2023-04-29T00:45:55;93552.59;;;21.48;47.19
48035;BME280;33812;46.480;6.834;2023-04-29T00:50:07;93542.38;;;21.58;46.82
48035;BME280;33812;46.480;6.834;2023-04-29T00:54:11;93546.84;;;21.43;47.36
48035;BME280;33812;46.480;6.834;2023-04-29T00:58:13;93538.31;;;21.50;47.21
48035;BME280;33812;46.480;6.834;2023-04-29T01:02:17;93548.16;;;21.51;46.84
48035;BME280;33812;46.480;6.834;2023-04-29T01:06:32;93544.53;;;21.41;47.27
48035;BME280;33812;46.480;6.834;2023-04-29T01:10:43;93530.34;;;21.52;46.98
48035;BME280;33812;46.480;6.834;2023-04-29T01:14:49;93512.63;;;21.62;46.56
48035;BME280;33812;46.480;6.834;2023-04-29T01:19:01;93519.34;;;21.61;46.33
48035;BME280;33812;46.480;6.834;2023-04-29T01:23:06;93508.75;;;21.60;46.32
48035;BME280;33812;46.480;6.834;2023-04-29T01:27:20;93523.69;;;21.62;46.37
48035;BME280;33812;46.480;6.834;2023-04-29T01:31:40;93537.53;;;21.49;46.59
48035;BME280;33812;46.480;6.834;2023-04-29T01:35:59;93557.94;;;21.78;45.76
48035;BME280;33812;46.480;6.834;2023-04-29T01:40:11;93585.94;;;21.67;45.97
48035;BME280;33812;46.480;6.834;2023-04-29T01:44:22;93571.09;;;21.25;47.38
48035;BME280;33812;46.480;6.834;2023-04-29T01:48:34;93566.66;;;21.28;47.23
48035;BME280;33812;46.480;6.834;2023-04-29T01:52:55;93561.44;;;21.30;47.27
48035;BME280;33812;46.480;6.834;2023-04-29T01:57:00;93562.78;;;21.25;47.51
48035;BME280;33812;46.480;6.834;2023-04-29T02:01:03;93567.00;;;21.17;47.51
48035;BME280;33812;46.480;6.834;2023-04-29T02:05:07;93573.84;;;21.25;47.82
48035;BME280;33812;46.480;6.834;2023-04-29T02:09:10;93569.78;;;21.17;47.60
48035;BME280;33812;46.480;6.834;2023-04-29T02:13:13;93559.59;;;21.27;47.24
48035;BME280;33812;46.480;6.834;2023-04-29T02:17:19;93565.22;;;21.23;47.47
48035;BME280;33812;46.480;6.834;2023-04-29T02:21:22;93555.69;;;21.37;46.85
48035;BME280;33812;46.480;6.834;2023-04-29T02:25:24;93534.59;;;21.31;47.16
48035;BME280;33812;46.480;6.834;2023-04-29T02:29:26;93544.84;;;21.43;46.63
48035;BME280;33812;46.480;6.834;2023-04-29T02:33:46;93529.34;;;21.46;46.57
48035;BME280;33812;46.480;6.834;2023-04-29T02:37:57;93528.44;;;21.62;46.09
48035;BME280;33812;46.480;6.834;2023-04-29T02:42:01;93525.56;;;21.53;46.44
48035;BME280;33812;46.480;6.834;2023-04-29T02:46:04;93522.00;;;21.65;45.62
48035;BME280;33812;46.480;6.834;2023-04-29T02:50:08;93514.28;;;21.60;46.18
48035;BME280;33812;46.480;6.834;2023-04-29T02:54:10;93521.38;;;21.61;46.11
48035;BME280;33812;46.480;6.834;2023-04-29T02:58:23;93519.03;;;21.59;46.08
48035;BME280;33812;46.480;6.834;2023-04-29T03:02:40;93527.06;;;21.31;46.92
48035;BME280;33812;46.480;6.834;2023-04-29T03:06:44;93524.50;;;21.37;46.71
48035;BME280;33812;46.480;6.834;2023-04-29T03:10:51;93516.31;;;21.46;46.37
48035;BME280;33812;46.480;6.834;2023-04-29T03:14:53;93513.16;;;21.22;47.20
48035;BME280;33812;46.480;6.834;2023-04-29T03:18:56;93515.47;;;21.10;47.29
48035;BME280;33812;46.480;6.834;2023-04-29T03:23:01;93525.34;;;21.60;45.65
48035;BME280;33812;46.480;6.834;2023-04-29T03:27:04;93535.00;;;21.42;46.67
48035;BME280;33812;46.480;6.834;2023-04-29T03:31:08;93534.81;;;21.23;47.19
48035;BME280;33812;46.480;6.834;2023-04-29T03:35:11;93536.34;;;21.24;46.97
48035;BME280;33812;46.480;6.834;2023-04-29T03:39:17;93547.09;;;21.22;47.16
48035;BME280;33812;46.480;6.834;2023-04-29T03:43:19;93538.47;;;21.07;47.68
48035;BME280;33812;46.480;6.834;2023-04-29T03:47:23;93537.59;;;20.97;47.91
48035;BME280;33812;46.480;6.834;2023-04-29T03:51:31;93544.97;;;20.87;48.36
48035;BME280;33812;46.480;6.834;2023-04-29T03:55:37;93537.38;;;21.05;47.46
48035;BME280;33812;46.480;6.834;2023-04-29T03:59:41;93533.50;;;21.02;47.78
48035;BME280;33812;46.480;6.834;2023-04-29T04:03:43;93537.91;;;21.25;47.02
48035;BME280;33812;46.480;6.834;2023-04-29T04:07:53;93520.94;;;21.01;47.63
48035;BME280;33812;46.480;6.834;2023-04-29T04:11:57;93511.81;;;20.87;48.01
48035;BME280;33812;46.480;6.834;2023-04-29T04:15:59;93514.13;;;21.41;46.17
48035;BME280;33812;46.480;6.834;2023-04-29T04:20:01;93508.38;;;21.35;46.17
48035;BME280;33812;46.480;6.834;2023-04-29T04:24:04;93518.88;;;21.41;46.41
48035;BME280;33812;46.480;6.834;2023-04-29T04:28:11;93521.50;;;21.57;45.76
48035;BME280;33812;46.480;6.834;2023-04-29T04:32:13;93516.72;;;21.58;45.75
48035;BME280;33812;46.480;6.834;2023-04-29T04:36:16;93526.66;;;21.20;46.89
48035;BME280;33812;46.480;6.834;2023-04-29T04:40:18;93529.44;;;20.94;48.47
48035;BME280;33812;46.480;6.834;2023-04-29T04:44:21;93533.06;;;21.17;47.56
48035;BME280;33812;46.480;6.834;2023-04-29T04:48:23;93548.75;;;21.20;47.56
48035;BME280;33812;46.480;6.834;2023-04-29T04:52:26;93540.25;;;21.14;47.53
48035;BME280;33812;46.480;6.834;2023-04-29T04:56:29;93556.81;;;21.14;47.65
48035;BME280;33812;46.480;6.834;2023-04-29T05:00:33;93560.03;;;21.12;47.69
48035;BME280;33812;46.480;6.834;2023-04-29T05:04:36;93561.34;;;21.21;47.36
48035;BME280;33812;46.480;6.834;2023-04-29T05:08:38;93558.47;;;21.37;46.50
48035;BME280;33812;46.480;6.834;2023-04-29T05:12:39;93554.72;;;21.18;47.32
48035;BME280;33812;46.480;6.834;2023-04-29T05:16:42;93556.47;;;21.25;47.05
48035;BME280;33812;46.480;6.834;2023-04-29T05:20:46;93559.69;;;21.10;47.44
48035;BME280;33812;46.480;6.834;2023-04-29T05:24:47;93565.66;;;21.09;47.53
48035;BME280;33812;46.480;6.834;2023-04-29T05:28:50;93566.63;;;21.41;46.92
48035;BME280;33812;46.480;6.834;2023-04-29T05:32:54;93574.75;;;21.22;47.42
48035;BME280;33812;46.480;6.834;2023-04-29T05:36:56;93573.03;;;21.51;46.91
48035;BME280;33812;46.480;6.834;2023-04-29T05:40:58;93579.59;;;21.18;47.42
48035;BME280;33812;46.480;6.834;2023-04-29T05:45:01;93578.34;;;21.45;46.87
48035;BME280;33812;46.480;6.834;2023-04-29T05:49:05;93584.31;;;21.44;47.10
48035;BME280;33812;46.480;6.834;2023-04-29T05:53:10;93587.00;;;21.34;47.03
48035;BME280;33812;46.480;6.834;2023-04-29T05:57:13;93594.06;;;21.09;47.94
48035;BME280;33812;46.480;6.834;2023-04-29T06:01:16;93593.41;;;21.18;47.51
48035;BME280;33812;46.480;6.834;2023-04-29T06:05:21;93589.44;;;21.06;47.77
48035;BME280;33812;46.480;6.834;2023-04-29T06:09:24;93598.94;;;21.05;47.99
48035;BME280;33812;46.480;6.834;2023-04-29T06:13:27;93609.13;;;21.34;47.11
48035;BME280;33812;46.480;6.834;2023-04-29T06:17:29;93600.69;;;21.51;47.31
48035;BME280;33812;46.480;6.834;2023-04-29T06:21:34;93608.31;;;21.60;47.29
48035;BME280;33812;46.480;6.834;2023-04-29T06:25:36;93614.94;;;21.49;47.71
48035;BME280;33812;46.480;6.834;2023-04-29T06:29:39;93611.22;;;21.43;48.15
48035;BME280;33812;46.480;6.834;2023-04-29T06:33:41;93615.84;;;21.46;48.08
48035;BME280;33812;46.480;6.834;2023-04-29T06:37:44;93619.59;;;21.53;48.15
48035;BME280;33812;46.480;6.834;2023-04-29T06:41:46;93619.59;;;21.53;48.39
48035;BME280;33812;46.480;6.834;2023-04-29T06:45:48;93614.53;;;21.38;48.78
48035;BME280;33812;46.480;6.834;2023-04-29T06:49:50;93622.59;;;21.32;48.92
48035;BME280;33812;46.480;6.834;2023-04-29T06:53:53;93625.25;;;21.36;48.91
48035;BME280;33812;46.480;6.834;2023-04-29T06:57:55;93628.03;;;21.36;49.26
48035;BME280;33812;46.480;6.834;2023-04-29T07:01:57;93627.13;;;21.52;48.86
48035;BME280;33812;46.480;6.834;2023-04-29T07:05:59;93617.94;;;21.42;49.43
48035;BME280;33812;46.480;6.834;2023-04-29T07:10:02;93618.84;;;21.39;48.74
48035;BME280;33812;46.480;6.834;2023-04-29T07:14:04;93609.56;;;21.33;49.42
48035;BME280;33812;46.480;6.834;2023-04-29T07:18:06;93615.50;;;21.44;48.82
48035;BME280;33812;46.480;6.834;2023-04-29T07:22:08;93613.41;;;21.48;48.60
48035;BME280;33812;46.480;6.834;2023-04-29T07:26:14;93609.19;;;21.57;48.87
48035;BME280;33812;46.480;6.834;2023-04-29T07:30:16;93613.72;;;21.50;48.75
48035;BME280;33812;46.480;6.834;2023-04-29T07:34:18;93622.03;;;21.50;48.96
48035;BME280;33812;46.480;6.834;2023-04-29T07:38:20;93619.25;;;21.50;48.82
48035;BME280;33812;46.480;6.834;2023-04-29T07:42:24;93626.13;;;21.59;48.87
48035;BME280;33812;46.480;6.834;2023-04-29T07:46:25;93623.88;;;21.67;48.77
48035;BME280;33812;46.480;6.834;2023-04-29T07:50:27;93630.06;;;21.84;48.11
48035;BME280;33812;46.480;6.834;2023-04-29T07:54:33;93627.09;;;21.65;49.56
48035;BME280;33812;46.480;6.834;2023-04-29T07:58:40;93634.41;;;21.46;50.56
48035;BME280;33812;46.480;6.834;2023-04-29T08:02:42;93637.41;;;21.25;51.15
48035;BME280;33812;46.480;6.834;2023-04-29T08:07:04;93629.66;;;21.33;50.61
48035;BME280;33812;46.480;6.834;2023-04-29T08:11:16;93632.22;;;21.41;50.24
48035;BME280;33812;46.480;6.834;2023-04-29T08:15:36;93640.28;;;21.35;50.28
48035;BME280;33812;46.480;6.834;2023-04-29T08:19:47;93633.09;;;21.37;50.50
48035;BME280;33812;46.480;6.834;2023-04-29T08:24:02;93633.56;;;21.36;50.17
48035;BME280;33812;46.480;6.834;2023-04-29T08:28:12;93643.06;;;21.61;49.85
48035;BME280;33812;46.480;6.834;2023-04-29T08:32:15;93631.75;;;21.55;50.13
48035;BME280;33812;46.480;6.834;2023-04-29T08:36:17;93625.13;;;21.53;51.33
48035;BME280;33812;46.480;6.834;2023-04-29T08:40:22;93623.34;;;21.59;51.15
48035;BME280;33812;46.480;6.834;2023-04-29T08:44:25;93629.53;;;21.63;51.35
48035;BME280;33812;46.480;6.834;2023-04-29T08:48:29;93616.00;;;21.91;49.32
48035;BME280;33812;46.480;6.834;2023-04-29T08:52:43;93617.56;;;21.92;50.08
48035;BME280;33812;46.480;6.834;2023-04-29T08:56:45;93611.81;;;21.86;49.71
48035;BME280;33812;46.480;6.834;2023-04-29T09:00:47;93619.09;;;21.93;50.28
48035;BME280;33812;46.480;6.834;2023-04-29T09:04:58;93614.69;;;21.83;49.32
48035;BME280;33812;46.480;6.834;2023-04-29T09:09:03;93622.31;;;21.79;49.04
48035;BME280;33812;46.480;6.834;2023-04-29T09:13:06;93623.88;;;21.67;48.82
48035;BME280;33812;46.480;6.834;2023-04-29T09:17:09;93629.19;;;21.74;49.76
48035;BME280;33812;46.480;6.834;2023-04-29T09:21:17;93633.75;;;21.68;49.13
48035;BME280;33812;46.480;6.834;2023-04-29T09:25:19;93641.38;;;21.77;49.33
48035;BME280;33812;46.480;6.834;2023-04-29T09:29:22;93646.38;;;21.82;49.66
48035;BME280;33812;46.480;6.834;2023-04-29T09:33:24;93648.78;;;21.80;50.11
48035;BME280;33812;46.480;6.834;2023-04-29T09:37:29;93659.88;;;21.80;49.62
48035;BME280;33812;46.480;6.834;2023-04-29T09:41:42;93648.41;;;22.04;48.71
48035;BME280;33812;46.480;6.834;2023-04-29T09:46:04;93646.94;;;22.12;48.92
48035;BME280;33812;46.480;6.834;2023-04-29T09:50:12;93651.38;;;22.09;48.58
48035;BME280;33812;46.480;6.834;2023-04-29T09:54:25;93648.03;;;22.15;48.27
48035;BME280;33812;46.480;6.834;2023-04-29T09:58:30;93649.13;;;22.17;48.43
48035;BME280;33812;46.480;6.834;2023-04-29T10:02:39;93652.03;;;22.14;48.65
48035;BME280;33812;46.480;6.834;2023-04-29T10:06:48;93651.91;;;22.17;48.29
48035;BME280;33812;46.480;6.834;2023-04-29T10:10:54;93651.66;;;22.25;47.95
48035;BME280;33812;46.480;6.834;2023-04-29T10:15:04;93650.25;;;22.20;48.14
48035;BME280;33812;46.480;6.834;2023-04-29T10:19:11;93635.50;;;22.23;47.64
48035;BME280;33812;46.480;6.834;2023-04-29T10:23:16;93638.94;;;22.27;47.67
48035;BME280;33812;46.480;6.834;2023-04-29T10:27:23;93646.00;;;22.28;47.49
48035;BME280;33812;46.480;6.834;2023-04-29T10:31:26;93644.00;;;22.29;47.27
48035;BME280;33812;46.480;6.834;2023-04-29T10:35:29;93631.38;;;22.28;47.07
48035;BME280;33812;46.480;6.834;2023-04-29T10:39:35;93631.59;;;22.33;46.91
48035;BME280;33812;46.480;6.834;2023-04-29T10:43:41;93622.38;;;22.37;46.91
48035;BME280;33812;46.480;6.834;2023-04-29T10:48:07;93621.91;;;22.38;46.76
48035;BME280;33812;46.480;6.834;2023-04-29T10:52:15;93615.06;;;22.43;46.65
48035;BME280;33812;46.480;6.834;2023-04-29T10:56:17;93614.28;;;22.42;46.75
48035;BME280;33812;46.480;6.834;2023-04-29T11:00:26;93608.16;;;22.48;46.92
48035;BME280;33812;46.480;6.834;2023-04-29T11:04:30;93610.47;;;22.49;46.77
48035;BME280;33812;46.480;6.834;2023-04-29T11:08:36;93615.56;;;22.51;46.34
48035;BME280;33812;46.480;6.834;2023-04-29T11:12:39;93610.47;;;22.49;46.53
48035;BME280;33812;46.480;6.834;2023-04-29T11:16:50;93611.56;;;22.52;47.01
48035;BME280;33812;46.480;6.834;2023-04-29T11:21:11;93614.34;;;22.52;46.81
48035;BME280;33812;46.480;6.834;2023-04-29T11:25:14;93611.25;;;22.50;47.09
48035;BME280;33812;46.480;6.834;2023-04-29T11:29:17;93604.47;;;22.51;47.11
48035;BME280;33812;46.480;6.834;2023-04-29T11:33:21;93606.50;;;22.50;47.34
48035;BME280;33812;46.480;6.834;2023-04-29T11:37:25;93600.94;;;22.50;47.50
48035;BME280;33812;46.480;6.834;2023-04-29T11:41:26;93594.97;;;22.52;47.07
48035;BME280;33812;46.480;6.834;2023-04-29T11:45:28;93599.72;;;22.51;47.68
48035;BME280;33812;46.480;6.834;2023-04-29T11:49:32;93602.03;;;22.53;47.48
48035;BME280;33812;46.480;6.834;2023-04-29T11:53:34;93603.56;;;22.54;47.29
48035;BME280;33812;46.480;6.834;2023-04-29T11:57:36;93603.56;;;22.54;47.06
48035;BME280;33812;46.480;6.834;2023-04-29T12:01:40;93603.56;;;22.54;47.72
48035;BME280;33812;46.480;6.834;2023-04-29T12:05:47;93607.56;;;22.53;48.09
48035;BME280;33812;46.480;6.834;2023-04-29T12:09:49;93609.09;;;22.54;47.86
48035;BME280;33812;46.480;6.834;2023-04-29T12:13:51;93599.50;;;22.45;48.06
48035;BME280;33812;46.480;6.834;2023-04-29T12:17:54;93589.41;;;22.52;47.59
48035;BME280;33812;46.480;6.834;2023-04-29T12:21:59;93593.59;;;22.56;47.71
48035;BME280;33812;46.480;6.834;2023-04-29T12:26:01;93594.06;;;22.55;47.61
48035;BME280;33812;46.480;6.834;2023-04-29T12:30:06;93593.53;;;22.47;47.09
48035;BME280;33812;46.480;6.834;2023-04-29T12:34:08;93590.31;;;22.49;47.09
48035;BME280;33812;46.480;6.834;2023-04-29T12:38:15;93602.75;;;22.44;46.68
48035;BME280;33812;46.480;6.834;2023-04-29T12:42:17;93592.78;;;22.46;46.41
48035;BME280;33812;46.480;6.834;2023-04-29T12:46:19;93587.53;;;22.49;46.13
48035;BME280;33812;46.480;6.834;2023-04-29T12:50:28;93591.41;;;22.51;46.13
48035;BME280;33812;46.480;6.834;2023-04-29T12:54:32;93592.19;;;22.52;45.91
48035;BME280;33812;46.480;6.834;2023-04-29T12:58:37;93601.25;;;22.52;45.80
48035;BME280;33812;46.480;6.834;2023-04-29T13:02:39;93605.72;;;22.50;45.98
48035;BME280;33812;46.480;6.834;2023-04-29T13:06:40;93608.81;;;22.52;45.75
48035;BME280;33812;46.480;6.834;2023-04-29T13:10:44;93605.84;;;22.46;46.09
48035;BME280;33812;46.480;6.834;2023-04-29T13:14:46;93601.38;;;22.49;45.74
48035;BME280;33812;46.480;6.834;2023-04-29T13:18:48;93603.25;;;22.52;45.69
48035;BME280;33812;46.480;6.834;2023-04-29T13:22:49;93603.25;;;22.52;45.67
48035;BME280;33812;46.480;6.834;2023-04-29T13:26:54;93606.03;;;22.52;45.59
48035;BME280;33812;46.480;6.834;2023-04-29T13:30:55;93599.38;;;22.49;45.39
48035;BME280;33812;46.480;6.834;2023-04-29T13:34:57;93594.97;;;22.52;45.09
48035;BME280;33812;46.480;6.834;2023-04-29T13:39:00;93589.41;;;22.52;45.18
48035;BME280;33812;46.480;6.834;2023-04-29T13:43:03;93594.50;;;22.53;44.98
48035;BME280;33812;46.480;6.834;2023-04-29T13:47:05;93601.38;;;22.49;45.01
48035;BME280;33812;46.480;6.834;2023-04-29T13:51:07;93599.19;;;22.43;44.92
48035;BME280;33812;46.480;6.834;2023-04-29T13:55:10;93592.13;;;22.42;44.97
48035;BME280;33812;46.480;6.834;2023-04-29T13:59:13;93595.22;;;22.44;45.10
48035;BME280;33812;46.480;6.834;2023-04-29T14:03:15;93596.63;;;22.49;44.68
48035;BME280;33812;46.480;6.834;2023-04-29T14:07:17;93593.66;;;22.43;45.12
48035;BME280;33812;46.480;6.834;2023-04-29T14:11:20;93579.50;;;22.41;45.05
48035;BME280;33812;46.480;6.834;2023-04-29T14:15:24;93574.47;;;22.49;44.66
48035;BME280;33812;46.480;6.834;2023-04-29T14:19:28;93563.59;;;22.55;44.32
48035;BME280;33812;46.480;6.834;2023-04-29T14:23:29;93562.75;;;22.45;44.90
48035;BME280;33812;46.480;6.834;2023-04-29T14:27:31;93560.44;;;22.43;44.41
48035;BME280;33812;46.480;6.834;2023-04-29T14:31:36;93568.16;;;22.49;44.39
48035;BME280;33812;46.480;6.834;2023-04-29T14:35:38;93565.09;;;22.46;44.35
48035;BME280;33812;46.480;6.834;2023-04-29T14:39:41;93561.84;;;22.48;44.42
48035;BME280;33812;46.480;6.834;2023-04-29T14:43:43;93574.34;;;22.53;44.00
48035;BME280;33812;46.480;6.834;2023-04-29T14:47:47;93572.34;;;22.53;44.42
48035;BME280;33812;46.480;6.834;2023-04-29T14:51:49;93563.59;;;22.55;44.68
48035;BME280;33812;46.480;6.834;2023-04-29T14:55:51;93559.91;;;22.58;44.74
48035;BME280;33812;46.480;6.834;2023-04-29T14:59:53;93570.19;;;22.57;45.58
48035;BME280;33812;46.480;6.834;2023-04-29T15:03:58;93564.66;;;22.57;45.28
48035;BME280;33812;46.480;6.834;2023-04-29T15:08:01;93575.00;;;22.57;45.21
48035;BME280;33812;46.480;6.834;2023-04-29T15:12:03;93572.22;;;22.57;45.11
48035;BME280;33812;46.480;6.834;2023-04-29T15:16:06;93571.91;;;22.55;44.91
48035;BME280;33812;46.480;6.834;2023-04-29T15:20:11;93575.44;;;22.55;44.75
48035;BME280;33812;46.480;6.834;2023-04-29T15:24:14;93568.00;;;22.52;44.64
48035;BME280;33812;46.480;6.834;2023-04-29T15:28:20;93578.34;;;22.52;44.47
48035;BME280;33812;46.480;6.834;2023-04-29T15:32:23;93578.34;;;22.52;44.83
48035;BME280;33812;46.480;6.834;2023-04-29T15:36:34;93569.72;;;22.50;44.95
48035;BME280;33812;46.480;6.834;2023-04-29T15:40:35;93583.88;;;22.52;45.68
48035;BME280;33812;46.480;6.834;2023-04-29T15:44:46;93572.66;;;22.55;46.37
48035;BME280;33812;46.480;6.834;2023-04-29T15:48:49;93575.00;;;22.57;46.04
48035;BME280;33812;46.480;6.834;2023-04-29T15:52:53;93576.19;;;22.56;46.61
48035;BME280;33812;46.480;6.834;2023-04-29T15:56:56;93574.06;;;22.60;46.88
48035;BME280;33812;46.480;6.834;2023-04-29T16:00:58;93568.13;;;22.62;47.35
48035;BME280;33812;46.480;6.834;2023-04-29T16:04:59;93570.97;;;22.58;47.47
48035;BME280;33812;46.480;6.834;2023-04-29T16:09:02;93577.88;;;22.53;47.40
48035;BME280;33812;46.480;6.834;2023-04-29T16:13:05;93581.16;;;22.61;47.17
48035;BME280;33812;46.480;6.834;2023-04-29T16:17:08;93577.09;;;22.53;47.11
48035;BME280;33812;46.480;6.834;2023-04-29T16:21:10;93571.25;;;22.51;46.87
48035;BME280;33812;46.480;6.834;2023-04-29T16:25:14;93581.25;;;22.48;46.64
48035;BME280;33812;46.480;6.834;2023-04-29T16:29:18;93574.13;;;22.47;46.63
48035;BME280;33812;46.480;6.834;2023-04-29T16:33:23;93575.38;;;22.46;46.56
48035;BME280;33812;46.480;6.834;2023-04-29T16:37:26;93579.38;;;22.45;47.19
48035;BME280;33812;46.480;6.834;2023-04-29T16:41:31;93572.16;;;22.48;46.94
48035;BME280;33812;46.480;6.834;2023-04-29T16:45:34;93572.66;;;22.55;46.49
48035;BME280;33812;46.480;6.834;2023-04-29T16:49:45;93570.41;;;22.41;46.74
48035;BME280;33812;46.480;6.834;2023-04-29T16:53:57;93573.66;;;22.39;46.53
48035;BME280;33812;46.480;6.834;2023-04-29T16:58:00;93576.78;;;22.51;47.06
48035;BME280;33812;46.480;6.834;2023-04-29T17:02:04;93568.88;;;22.62;46.97
48035;BME280;33812;46.480;6.834;2023-04-29T17:06:06;93575.06;;;22.66;47.15
48035;BME280;33812;46.480;6.834;2023-04-29T17:10:08;93564.31;;;22.68;47.45
48035;BME280;33812;46.480;6.834;2023-04-29T17:14:13;93559.41;;;22.73;47.82
48035;BME280;33812;46.480;6.834;2023-04-29T17:18:15;93555.72;;;22.76;47.84
48035;BME280;33812;46.480;6.834;2023-04-29T17:22:18;93552.94;;;22.76;47.86
48035;BME280;33812;46.480;6.834;2023-04-29T17:26:20;93549.84;;;22.74;47.69
48035;BME280;33812;46.480;6.834;2023-04-29T17:30:23;93545.28;;;22.80;47.44
48035;BME280;33812;46.480;6.834;2023-04-29T17:34:26;93553.56;;;22.48;46.80
48035;BME280;33812;46.480;6.834;2023-04-29T17:38:30;93550.13;;;22.44;45.11
48035;BME280;33812;46.480;6.834;2023-04-29T17:42:33;93549.53;;;22.49;45.90
48035;BME280;33812;46.480;6.834;2023-04-29T17:46:36;93547.03;;;22.42;46.45
48035;BME280;33812;46.480;6.834;2023-04-29T17:50:39;93538.78;;;22.51;47.26
48035;BME280;33812;46.480;6.834;2023-04-29T17:54:41;93538.91;;;22.48;47.24
48035;BME280;33812;46.480;6.834;2023-04-29T17:58:43;93537.69;;;22.49;47.22
48035;BME280;33812;46.480;6.834;2023-04-29T18:02:47;93540.78;;;22.51;46.97
48035;BME280;33812;46.480;6.834;2023-04-29T18:06:50;93533.84;;;22.46;46.50
48035;BME280;33812;46.480;6.834;2023-04-29T18:10:52;93529.09;;;22.46;46.80
48035;BME280;33812;46.480;6.834;2023-04-29T18:14:53;93524.59;;;22.40;46.38
48035;BME280;33812;46.480;6.834;2023-04-29T18:18:57;93527.03;;;22.15;44.85
48035;BME280;33812;46.480;6.834;2023-04-29T18:22:58;93529.81;;;22.15;44.38
48035;BME280;33812;46.480;6.834;2023-04-29T18:27:01;93533.38;;;22.48;45.38
48035;BME280;33812;46.480;6.834;2023-04-29T18:31:02;93533.91;;;22.55;46.17
48035;BME280;33812;46.480;6.834;2023-04-29T18:35:07;93529.81;;;22.38;44.42
48035;BME280;33812;46.480;6.834;2023-04-29T18:39:09;93533.28;;;22.06;43.58
48035;BME280;33812;46.480;6.834;2023-04-29T18:43:10;93542.09;;;22.14;42.79
48035;BME280;33812;46.480;6.834;2023-04-29T18:47:16;93544.22;;;22.32;44.23
48035;BME280;33812;46.480;6.834;2023-04-29T18:51:20;93548.47;;;22.46;44.00
48035;BME280;33812;46.480;6.834;2023-04-29T18:55:22;93547.88;;;22.52;44.26
48035;BME280;33812;46.480;6.834;2023-04-29T18:59:24;93553.69;;;22.44;44.34
48035;BME280;33812;46.480;6.834;2023-04-29T19:03:26;93557.84;;;22.49;44.92
48035;BME280;33812;46.480;6.834;2023-04-29T19:07:29;93554.31;;;22.49;44.61
48035;BME280;33812;46.480;6.834;2023-04-29T19:11:31;93552.56;;;22.42;44.87
48035;BME280;33812;46.480;6.834;2023-04-29T19:15:33;93551.44;;;22.07;44.45
48035;BME280;33812;46.480;6.834;2023-04-29T19:19:36;93547.19;;;21.32;44.92
48035;BME280;33812;46.480;6.834;2023-04-29T19:23:39;93558.22;;;21.45;43.92
48035;BME280;33812;46.480;6.834;2023-04-29T19:27:41;93555.47;;;21.32;44.47
48035;BME280;33812;46.480;6.834;2023-04-29T19:31:44;93549.31;;;21.76;44.23
48035;BME280;33812;46.480;6.834;2023-04-29T19:35:46;93560.38;;;22.12;43.87
48035;BME280;33812;46.480;6.834;2023-04-29T19:39:49;93563.31;;;22.17;43.77
48035;BME280;33812;46.480;6.834;2023-04-29T19:43:53;93566.75;;;22.21;44.09
48035;BME280;33812;46.480;6.834;2023-04-29T19:47:55;93564.31;;;22.24;44.00
48035;BME280;33812;46.480;6.834;2023-04-29T19:51:58;93563.31;;;22.17;43.83
48035;BME280;33812;46.480;6.834;2023-04-29T19:56:02;93559.97;;;22.22;44.29
48035;BME280;33812;46.480;6.834;2023-04-29T20:00:05;93554.97;;;22.30;44.97
48035;BME280;33812;46.480;6.834;2023-04-29T20:04:08;93557.28;;;22.09;44.61
48035;BME280;33812;46.480;6.834;2023-04-29T20:08:11;93548.00;;;22.03;45.15
48035;BME280;33812;46.480;6.834;2023-04-29T20:12:14;93554.16;;;22.20;45.82
48035;BME280;33812;46.480;6.834;2023-04-29T20:16:16;93557.34;;;22.19;45.89
48035;BME280;33812;46.480;6.834;2023-04-29T20:20:18;93551.63;;;22.13;44.65
48035;BME280;33812;46.480;6.834;2023-04-29T20:24:19;93553.69;;;22.22;45.56
48035;BME280;33812;46.480;6.834;2023-04-29T20:28:23;93542.66;;;22.09;45.40
48035;BME280;33812;46.480;6.834;2023-04-29T20:32:24;93544.22;;;22.10;45.11
48035;BME280;33812;46.480;6.834;2023-04-29T20:36:26;93537.97;;;21.96;45.27
48035;BME280;33812;46.480;6.834;2023-04-29T20:40:29;93537.38;;;22.02;45.89
48035;BME280;33812;46.480;6.834;2023-04-29T20:44:34;93541.84;;;21.99;45.87
48035;BME280;33812;46.480;6.834;2023-04-29T20:48:37;93542.22;;;22.10;44.74
48035;BME280;33812;46.480;6.834;2023-04-29T20:52:39;93547.16;;;22.16;45.45
48035;BME280;33812;46.480;6.834;2023-04-29T20:56:41;93552.38;;;22.14;45.54
48035;BME280;33812;46.480;6.834;2023-04-29T21:00:44;93563.28;;;22.08;44.91
48035;BME280;33812;46.480;6.834;2023-04-29T21:04:45;93572.03;;;22.06;44.85
48035;BME280;33812;46.480;6.834;2023-04-29T21:08:48;93581.41;;;22.09;45.47
48035;BME280;33812;46.480;6.834;2023-04-29T21:12:52;93593.63;;;21.98;45.47
48035;BME280;33812;46.480;6.834;2023-04-29T21:16:55;93590.41;;;22.00;45.18
48035;BME280;33812;46.480;6.834;2023-04-29T21:20:58;93579.34;;;22.00;45.06
48035;BME280;33812;46.480;6.834;2023-04-29T21:25:00;93583.00;;;21.97;45.56
48035;BME280;33812;46.480;6.834;2023-04-29T21:29:02;93584.44;;;22.02;46.50
48035;BME280;33812;46.480;6.834;2023-04-29T21:33:06;93591.44;;;21.93;45.61